sensor_id;sensor_type;location;lat;lon;timestamp;P1;durP1;ratioP1;P2;durP2;ratioP2
9294;SDS011;4686;44.496;11.324;2023-12-20T00:01:05;10.93;;;9.83;;
9294;SDS011;4686;44.496;11.324;2023-12-20T00:03:33;11.23;;;10.10;;
9294;SDS011;4686;44.496;11.324;2023-12-20T00:06:00;11.30;;;10.30;;
9294;SDS011;4686;44.496;11.324;2023-12-20T00:08:27;10.90;;;9.80;;
9294;SDS011;4686;44.496;11.324;2023-12-20T00:10:55;9.83;;;8.93;;
9294;SDS011;4686;44.496;11.324;2023-12-20T00:13:22;10.70;;;9.70;;
9294;SDS011;4686;44.496;11.324;2023-12-20T00:15:51;11.23;;;9.90;;
9294;SDS011;4686;44.496;11.324;2023-12-20T00:18:18;11.00;;;10.10;;
9294;SDS011;4686;44.496;11.324;2023-12-20T00:20:45;11.20;;;10.23;;
9294;SDS011;4686;44.496;11.324;2023-12-20T00:23:12;10.23;;;9.33;;
9294;SDS011;4686;44.496;11.324;2023-12-20T00:25:39;10.97;;;10.00;;
9294;SDS011;4686;44.496;11.324;2023-12-20T00:28:07;10.50;;;9.60;;
9294;SDS011;4686;44.496;11.324;2023-12-20T00:30:34;11.33;;;10.23;;
9294;SDS011;4686;44.496;11.324;2023-12-20T00:33:03;10.90;;;9.80;;
9294;SDS011;4686;44.496;11.324;2023-12-20T00:35:30;10.90;;;9.80;;
9294;SDS011;4686;44.496;11.324;2023-12-20T00:37:57;10.13;;;9.23;;
9294;SDS011;4686;44.496;11.324;2023-12-20T00:40:25;13.20;;;10.57;;
9294;SDS011;4686;44.496;11.324;2023-12-20T00:42:52;12.77;;;10.13;;
9294;SDS011;4686;44.496;11.324;2023-12-20T00:45:19;10.87;;;9.87;;
9294;SDS011;4686;44.496;11.324;2023-12-20T00:47:46;11.00;;;9.80;;
9294;SDS011;4686;44.496;11.324;2023-12-20T00:50:15;11.03;;;9.97;;
9294;SDS011;4686;44.496;11.324;2023-12-20T00:52:42;10.63;;;9.60;;
9294;SDS011;4686;44.496;11.324;2023-12-20T00:55:09;10.70;;;9.60;;
9294;SDS011;4686;44.496;11.324;2023-12-20T00:57:37;10.10;;;9.20;;
9294;SDS011;4686;44.496;11.324;2023-12-20T01:00:04;10.57;;;9.57;;
9294;SDS011;4686;44.496;11.324;2023-12-20T01:02:32;10.03;;;9.13;;
9294;SDS011;4686;44.496;11.324;2023-12-20T01:04:59;10.40;;;9.60;;
9294;SDS011;4686;44.496;11.324;2023-12-20T01:07:27;10.90;;;9.83;;
9294;SDS011;4686;44.496;11.324;2023-12-20T01:09:55;10.40;;;9.40;;
9294;SDS011;4686;44.496;11.324;2023-12-20T01:12:22;10.37;;;9.47;;
9294;SDS011;4686;44.496;11.324;2023-12-20T01:14:49;13.07;;;9.80;;
9294;SDS011;4686;44.496;11.324;2023-12-20T01:17:17;10.40;;;9.43;;
9294;SDS011;4686;44.496;11.324;2023-12-20T01:19:44;10.20;;;9.20;;
9294;SDS011;4686;44.496;11.324;2023-12-20T01:22:11;10.03;;;9.13;;
9294;SDS011;4686;44.496;11.324;2023-12-20T01:24:39;9.70;;;8.90;;
9294;SDS011;4686;44.496;11.324;2023-12-20T01:27:07;11.53;;;9.37;;
9294;SDS011;4686;44.496;11.324;2023-12-20T01:29:34;10.97;;;9.93;;
9294;SDS011;4686;44.496;11.324;2023-12-20T01:32:02;13.20;;;9.17;;
9294;SDS011;4686;44.496;11.324;2023-12-20T01:34:29;10.60;;;9.60;;
9294;SDS011;4686;44.496;11.324;2023-12-20T01:36:56;10.33;;;9.37;;
9294;SDS011;4686;44.496;11.324;2023-12-20T01:39:25;12.87;;;11.23;;
9294;SDS011;4686;44.496;11.324;2023-12-20T01:41:54;10.67;;;9.63;;
9294;SDS011;4686;44.496;11.324;2023-12-20T01:44:21;10.47;;;9.57;;
9294;SDS011;4686;44.496;11.324;2023-12-20T01:46:48;9.50;;;8.70;;
9294;SDS011;4686;44.496;11.324;2023-12-20T01:49:16;11.37;;;10.37;;
9294;SDS011;4686;44.496;11.324;2023-12-20T01:51:43;12.13;;;10.73;;
9294;SDS011;4686;44.496;11.324;2023-12-20T01:54:10;11.07;;;10.07;;
9294;SDS011;4686;44.496;11.324;2023-12-20T01:56:38;10.33;;;9.43;;
9294;SDS011;4686;44.496;11.324;2023-12-20T01:59:07;11.30;;;10.13;;
9294;SDS011;4686;44.496;11.324;2023-12-20T02:01:35;10.50;;;9.60;;
9294;SDS011;4686;44.496;11.324;2023-12-20T02:04:02;10.93;;;9.50;;
9294;SDS011;4686;44.496;11.324;2023-12-20T02:06:29;12.40;;;8.57;;
9294;SDS011;4686;44.496;11.324;2023-12-20T02:08:57;9.40;;;8.70;;
9294;SDS011;4686;44.496;11.324;2023-12-20T02:11:24;9.50;;;8.80;;
9294;SDS011;4686;44.496;11.324;2023-12-20T02:13:52;10.23;;;9.43;;
9294;SDS011;4686;44.496;11.324;2023-12-20T02:16:21;10.10;;;9.20;;
9294;SDS011;4686;44.496;11.324;2023-12-20T02:18:49;10.57;;;9.37;;
9294;SDS011;4686;44.496;11.324;2023-12-20T02:21:16;10.90;;;9.90;;
9294;SDS011;4686;44.496;11.324;2023-12-20T02:23:44;11.63;;;9.90;;
9294;SDS011;4686;44.496;11.324;2023-12-20T02:26:12;9.73;;;8.83;;
9294;SDS011;4686;44.496;11.324;2023-12-20T02:28:40;12.37;;;9.70;;
9294;SDS011;4686;44.496;11.324;2023-12-20T02:31:07;10.83;;;9.77;;
9294;SDS011;4686;44.496;11.324;2023-12-20T02:33:34;10.10;;;9.10;;
9294;SDS011;4686;44.496;11.324;2023-12-20T02:36:02;10.40;;;9.40;;
9294;SDS011;4686;44.496;11.324;2023-12-20T02:38:29;13.03;;;9.13;;
9294;SDS011;4686;44.496;11.324;2023-12-20T02:40:58;9.97;;;9.03;;
9294;SDS011;4686;44.496;11.324;2023-12-20T02:43:25;10.10;;;9.27;;
9294;SDS011;4686;44.496;11.324;2023-12-20T02:45:52;9.13;;;8.30;;
9294;SDS011;4686;44.496;11.324;2023-12-20T02:48:20;10.17;;;9.17;;
9294;SDS011;4686;44.496;11.324;2023-12-20T02:50:47;11.20;;;9.93;;
9294;SDS011;4686;44.496;11.324;2023-12-20T02:53:15;10.17;;;9.03;;
9294;SDS011;4686;44.496;11.324;2023-12-20T02:55:42;13.30;;;10.53;;
9294;SDS011;4686;44.496;11.324;2023-12-20T02:58:11;11.10;;;10.03;;
9294;SDS011;4686;44.496;11.324;2023-12-20T03:00:38;12.93;;;10.60;;
9294;SDS011;4686;44.496;11.324;2023-12-20T03:03:05;11.07;;;10.07;;
9294;SDS011;4686;44.496;11.324;2023-12-20T03:05:33;10.83;;;9.90;;
9294;SDS011;4686;44.496;11.324;2023-12-20T03:08:00;17.43;;;10.80;;
9294;SDS011;4686;44.496;11.324;2023-12-20T03:10:27;12.40;;;11.10;;
9294;SDS011;4686;44.496;11.324;2023-12-20T03:12:54;12.00;;;10.90;;
9294;SDS011;4686;44.496;11.324;2023-12-20T03:15:23;12.83;;;11.67;;
9294;SDS011;4686;44.496;11.324;2023-12-20T03:17:50;10.73;;;9.80;;
9294;SDS011;4686;44.496;11.324;2023-12-20T03:20:18;12.53;;;10.30;;
9294;SDS011;4686;44.496;11.324;2023-12-20T03:22:45;12.47;;;11.27;;
9294;SDS011;4686;44.496;11.324;2023-12-20T03:25:12;12.90;;;11.60;;
9294;SDS011;4686;44.496;11.324;2023-12-20T03:27:39;12.40;;;9.90;;
9294;SDS011;4686;44.496;11.324;2023-12-20T03:30:07;11.30;;;10.30;;
9294;SDS011;4686;44.496;11.324;2023-12-20T03:32:36;11.33;;;10.13;;
9294;SDS011;4686;44.496;11.324;2023-12-20T03:35:03;10.63;;;9.73;;
9294;SDS011;4686;44.496;11.324;2023-12-20T03:37:31;11.23;;;9.77;;
9294;SDS011;4686;44.496;11.324;2023-12-20T03:39:58;11.60;;;10.60;;
9294;SDS011;4686;44.496;11.324;2023-12-20T03:42:27;11.50;;;10.00;;
9294;SDS011;4686;44.496;11.324;2023-12-20T03:44:54;12.50;;;10.23;;
9294;SDS011;4686;44.496;11.324;2023-12-20T03:47:21;11.43;;;10.33;;
9294;SDS011;4686;44.496;11.324;2023-12-20T03:49:50;10.23;;;9.33;;
9294;SDS011;4686;44.496;11.324;2023-12-20T03:52:17;11.20;;;10.20;;
9294;SDS011;4686;44.496;11.324;2023-12-20T03:54:44;11.77;;;10.67;;
9294;SDS011;4686;44.496;11.324;2023-12-20T03:57:11;13.17;;;11.40;;
9294;SDS011;4686;44.496;11.324;2023-12-20T03:59:38;12.00;;;10.90;;
9294;SDS011;4686;44.496;11.324;2023-12-20T04:02:06;12.90;;;11.63;;
9294;SDS011;4686;44.496;11.324;2023-12-20T04:04:33;11.83;;;10.57;;
9294;SDS011;4686;44.496;11.324;2023-12-20T04:07:02;12.13;;;10.23;;
9294;SDS011;4686;44.496;11.324;2023-12-20T04:09:29;13.40;;;12.00;;
9294;SDS011;4686;44.496;11.324;2023-12-20T04:11:57;13.13;;;11.57;;
9294;SDS011;4686;44.496;11.324;2023-12-20T04:14:24;11.40;;;10.27;;
9294;SDS011;4686;44.496;11.324;2023-12-20T04:16:52;10.97;;;9.90;;
9294;SDS011;4686;44.496;11.324;2023-12-20T04:19:19;15.23;;;10.40;;
9294;SDS011;4686;44.496;11.324;2023-12-20T04:21:47;15.53;;;11.10;;
9294;SDS011;4686;44.496;11.324;2023-12-20T04:24:16;13.17;;;11.60;;
9294;SDS011;4686;44.496;11.324;2023-12-20T04:26:43;10.23;;;9.33;;
9294;SDS011;4686;44.496;11.324;2023-12-20T04:29:10;12.00;;;10.80;;
9294;SDS011;4686;44.496;11.324;2023-12-20T04:31:38;11.90;;;10.80;;
9294;SDS011;4686;44.496;11.324;2023-12-20T04:34:05;10.70;;;9.47;;
9294;SDS011;4686;44.496;11.324;2023-12-20T04:36:32;9.57;;;8.67;;
9294;SDS011;4686;44.496;11.324;2023-12-20T04:39:00;10.40;;;9.47;;
9294;SDS011;4686;44.496;11.324;2023-12-20T04:41:29;10.73;;;9.63;;
9294;SDS011;4686;44.496;11.324;2023-12-20T04:43:57;13.03;;;9.77;;
9294;SDS011;4686;44.496;11.324;2023-12-20T04:46:24;12.43;;;11.17;;
9294;SDS011;4686;44.496;11.324;2023-12-20T04:48:51;11.40;;;10.20;;
9294;SDS011;4686;44.496;11.324;2023-12-20T04:51:18;11.23;;;10.10;;
9294;SDS011;4686;44.496;11.324;2023-12-20T04:53:45;16.20;;;10.63;;
9294;SDS011;4686;44.496;11.324;2023-12-20T04:56:13;10.80;;;9.90;;
9294;SDS011;4686;44.496;11.324;2023-12-20T04:58:41;10.63;;;9.73;;
9294;SDS011;4686;44.496;11.324;2023-12-20T05:01:09;9.73;;;8.93;;
9294;SDS011;4686;44.496;11.324;2023-12-20T05:03:37;10.90;;;9.90;;
9294;SDS011;4686;44.496;11.324;2023-12-20T05:06:04;11.57;;;10.37;;
9294;SDS011;4686;44.496;11.324;2023-12-20T05:08:31;11.10;;;10.00;;
9294;SDS011;4686;44.496;11.324;2023-12-20T05:10:58;11.60;;;10.40;;
9294;SDS011;4686;44.496;11.324;2023-12-20T05:13:26;11.50;;;10.40;;
9294;SDS011;4686;44.496;11.324;2023-12-20T05:15:54;10.60;;;9.60;;
9294;SDS011;4686;44.496;11.324;2023-12-20T05:18:21;15.10;;;11.47;;
9294;SDS011;4686;44.496;11.324;2023-12-20T05:20:49;13.37;;;10.03;;
9294;SDS011;4686;44.496;11.324;2023-12-20T05:23:16;12.70;;;10.67;;
9294;SDS011;4686;44.496;11.324;2023-12-20T05:25:43;18.77;;;9.90;;
9294;SDS011;4686;44.496;11.324;2023-12-20T05:28:11;11.87;;;9.80;;
9294;SDS011;4686;44.496;11.324;2023-12-20T05:30:38;12.40;;;10.80;;
9294;SDS011;4686;44.496;11.324;2023-12-20T05:33:06;17.63;;;9.97;;
9294;SDS011;4686;44.496;11.324;2023-12-20T05:35:34;11.30;;;10.10;;
9294;SDS011;4686;44.496;11.324;2023-12-20T05:38:01;11.37;;;10.10;;
9294;SDS011;4686;44.496;11.324;2023-12-20T05:40:28;16.43;;;10.30;;
9294;SDS011;4686;44.496;11.324;2023-12-20T05:42:56;15.00;;;11.20;;
9294;SDS011;4686;44.496;11.324;2023-12-20T05:45:23;10.93;;;9.30;;
9294;SDS011;4686;44.496;11.324;2023-12-20T05:47:50;11.20;;;10.20;;
9294;SDS011;4686;44.496;11.324;2023-12-20T05:50:18;11.53;;;10.00;;
9294;SDS011;4686;44.496;11.324;2023-12-20T05:52:46;12.13;;;9.63;;
9294;SDS011;4686;44.496;11.324;2023-12-20T05:55:13;11.07;;;9.93;;
9294;SDS011;4686;44.496;11.324;2023-12-20T05:57:40;10.97;;;9.87;;
9294;SDS011;4686;44.496;11.324;2023-12-20T06:00:08;17.63;;;10.50;;
9294;SDS011;4686;44.496;11.324;2023-12-20T06:02:36;15.47;;;10.70;;
9294;SDS011;4686;44.496;11.324;2023-12-20T06:05:04;12.07;;;10.73;;
9294;SDS011;4686;44.496;11.324;2023-12-20T06:07:32;11.70;;;10.67;;
9294;SDS011;4686;44.496;11.324;2023-12-20T06:09:59;12.10;;;10.80;;
9294;SDS011;4686;44.496;11.324;2023-12-20T06:12:27;12.60;;;11.40;;
9294;SDS011;4686;44.496;11.324;2023-12-20T06:14:57;11.40;;;10.40;;
9294;SDS011;4686;44.496;11.324;2023-12-20T06:17:24;11.33;;;10.23;;
9294;SDS011;4686;44.496;11.324;2023-12-20T06:19:52;14.00;;;10.60;;
9294;SDS011;4686;44.496;11.324;2023-12-20T06:22:19;11.10;;;10.20;;
9294;SDS011;4686;44.496;11.324;2023-12-20T06:24:47;9.20;;;8.40;;
9294;SDS011;4686;44.496;11.324;2023-12-20T06:27:15;10.87;;;9.77;;
9294;SDS011;4686;44.496;11.324;2023-12-20T06:29:42;13.40;;;10.13;;
9294;SDS011;4686;44.496;11.324;2023-12-20T06:32:10;10.60;;;9.60;;
9294;SDS011;4686;44.496;11.324;2023-12-20T06:34:37;10.40;;;9.30;;
9294;SDS011;4686;44.496;11.324;2023-12-20T06:37:04;9.03;;;8.33;;
9294;SDS011;4686;44.496;11.324;2023-12-20T06:39:32;9.70;;;8.80;;
9294;SDS011;4686;44.496;11.324;2023-12-20T06:42:01;11.37;;;10.03;;
9294;SDS011;4686;44.496;11.324;2023-12-20T06:44:29;12.60;;;10.00;;
9294;SDS011;4686;44.496;11.324;2023-12-20T06:46:56;10.40;;;9.40;;
9294;SDS011;4686;44.496;11.324;2023-12-20T06:49:24;17.67;;;9.90;;
9294;SDS011;4686;44.496;11.324;2023-12-20T06:51:51;21.50;;;11.07;;
9294;SDS011;4686;44.496;11.324;2023-12-20T06:54:18;10.57;;;9.43;;
9294;SDS011;4686;44.496;11.324;2023-12-20T06:56:46;9.83;;;9.03;;
9294;SDS011;4686;44.496;11.324;2023-12-20T06:59:14;11.33;;;10.33;;
9294;SDS011;4686;44.496;11.324;2023-12-20T07:01:41;10.47;;;9.47;;
9294;SDS011;4686;44.496;11.324;2023-12-20T07:04:09;10.90;;;9.80;;
9294;SDS011;4686;44.496;11.324;2023-12-20T07:06:36;10.50;;;9.60;;
9294;SDS011;4686;44.496;11.324;2023-12-20T07:09:03;14.70;;;12.20;;
9294;SDS011;4686;44.496;11.324;2023-12-20T07:11:30;14.63;;;11.27;;
9294;SDS011;4686;44.496;11.324;2023-12-20T07:13:58;11.87;;;10.27;;
9294;SDS011;4686;44.496;11.324;2023-12-20T07:16:26;13.10;;;10.60;;
9294;SDS011;4686;44.496;11.324;2023-12-20T07:18:54;10.07;;;9.27;;
9294;SDS011;4686;44.496;11.324;2023-12-20T07:21:22;10.10;;;9.17;;
9294;SDS011;4686;44.496;11.324;2023-12-20T07:23:49;14.60;;;13.00;;
9294;SDS011;4686;44.496;11.324;2023-12-20T07:26:17;10.37;;;9.30;;
9294;SDS011;4686;44.496;11.324;2023-12-20T07:28:45;10.60;;;9.23;;
9294;SDS011;4686;44.496;11.324;2023-12-20T07:31:12;10.30;;;9.40;;
9294;SDS011;4686;44.496;11.324;2023-12-20T07:33:41;12.10;;;10.20;;
9294;SDS011;4686;44.496;11.324;2023-12-20T07:36:08;13.90;;;10.10;;
9294;SDS011;4686;44.496;11.324;2023-12-20T07:38:37;10.07;;;8.93;;
9294;SDS011;4686;44.496;11.324;2023-12-20T07:41:04;10.40;;;9.20;;
9294;SDS011;4686;44.496;11.324;2023-12-20T07:43:31;11.80;;;9.83;;
9294;SDS011;4686;44.496;11.324;2023-12-20T07:46:03;14.57;;;10.13;;
9294;SDS011;4686;44.496;11.324;2023-12-20T07:48:30;10.40;;;9.50;;
9294;SDS011;4686;44.496;11.324;2023-12-20T07:50:59;11.53;;;9.60;;
9294;SDS011;4686;44.496;11.324;2023-12-20T07:53:26;11.63;;;10.10;;
9294;SDS011;4686;44.496;11.324;2023-12-20T07:55:53;20.10;;;11.20;;
9294;SDS011;4686;44.496;11.324;2023-12-20T07:58:21;13.00;;;10.50;;
9294;SDS011;4686;44.496;11.324;2023-12-20T08:00:48;12.10;;;10.90;;
9294;SDS011;4686;44.496;11.324;2023-12-20T08:03:15;18.83;;;10.10;;
9294;SDS011;4686;44.496;11.324;2023-12-20T08:05:42;11.70;;;10.60;;
9294;SDS011;4686;44.496;11.324;2023-12-20T08:08:11;12.33;;;11.20;;
9294;SDS011;4686;44.496;11.324;2023-12-20T08:10:38;17.53;;;11.70;;
9294;SDS011;4686;44.496;11.324;2023-12-20T08:13:06;13.30;;;10.90;;
9294;SDS011;4686;44.496;11.324;2023-12-20T08:15:33;17.83;;;12.37;;
9294;SDS011;4686;44.496;11.324;2023-12-20T08:18:02;26.00;;;11.67;;
9294;SDS011;4686;44.496;11.324;2023-12-20T08:20:29;16.67;;;12.30;;
9294;SDS011;4686;44.496;11.324;2023-12-20T08:22:57;19.53;;;11.73;;
9294;SDS011;4686;44.496;11.324;2023-12-20T08:25:25;17.50;;;12.00;;
9294;SDS011;4686;44.496;11.324;2023-12-20T08:27:52;18.47;;;11.60;;
9294;SDS011;4686;44.496;11.324;2023-12-20T08:30:19;14.20;;;11.40;;
9294;SDS011;4686;44.496;11.324;2023-12-20T08:32:46;15.50;;;11.00;;
9294;SDS011;4686;44.496;11.324;2023-12-20T08:35:14;12.60;;;10.40;;
9294;SDS011;4686;44.496;11.324;2023-12-20T08:37:41;16.67;;;11.00;;
9294;SDS011;4686;44.496;11.324;2023-12-20T08:40:09;17.20;;;11.00;;
9294;SDS011;4686;44.496;11.324;2023-12-20T08:42:37;15.07;;;11.10;;
9294;SDS011;4686;44.496;11.324;2023-12-20T08:45:05;16.07;;;11.00;;
9294;SDS011;4686;44.496;11.324;2023-12-20T08:47:32;22.30;;;11.63;;
9294;SDS011;4686;44.496;11.324;2023-12-20T08:49:59;16.40;;;12.10;;
9294;SDS011;4686;44.496;11.324;2023-12-20T08:52:27;14.70;;;10.97;;
9294;SDS011;4686;44.496;11.324;2023-12-20T08:54:54;17.63;;;11.10;;
9294;SDS011;4686;44.496;11.324;2023-12-20T08:57:21;12.57;;;11.30;;
9294;SDS011;4686;44.496;11.324;2023-12-20T08:59:51;32.83;;;11.77;;
9294;SDS011;4686;44.496;11.324;2023-12-20T09:02:19;14.87;;;12.30;;
9294;SDS011;4686;44.496;11.324;2023-12-20T09:04:46;31.20;;;14.57;;
9294;SDS011;4686;44.496;11.324;2023-12-20T09:07:22;22.90;;;17.60;;
9294;SDS011;4686;44.496;11.324;2023-12-20T09:09:49;26.70;;;20.03;;
9294;SDS011;4686;44.496;11.324;2023-12-20T09:12:17;29.60;;;21.90;;
9294;SDS011;4686;44.496;11.324;2023-12-20T09:14:44;26.50;;;22.03;;
9294;SDS011;4686;44.496;11.324;2023-12-20T09:17:13;26.50;;;21.77;;
9294;SDS011;4686;44.496;11.324;2023-12-20T09:19:41;30.07;;;23.80;;
9294;SDS011;4686;44.496;11.324;2023-12-20T09:22:09;33.83;;;24.80;;
9294;SDS011;4686;44.496;11.324;2023-12-20T09:24:36;30.30;;;24.60;;
9294;SDS011;4686;44.496;11.324;2023-12-20T09:27:04;33.23;;;24.77;;
9294;SDS011;4686;44.496;11.324;2023-12-20T09:29:31;31.00;;;24.93;;
9294;SDS011;4686;44.496;11.324;2023-12-20T09:31:59;30.63;;;23.70;;
9294;SDS011;4686;44.496;11.324;2023-12-20T09:34:27;31.53;;;23.53;;
9294;SDS011;4686;44.496;11.324;2023-12-20T09:36:54;27.90;;;21.90;;
9294;SDS011;4686;44.496;11.324;2023-12-20T09:39:21;28.27;;;21.13;;
9294;SDS011;4686;44.496;11.324;2023-12-20T09:41:49;27.33;;;21.97;;
9294;SDS011;4686;44.496;11.324;2023-12-20T09:44:18;26.10;;;21.70;;
9294;SDS011;4686;44.496;11.324;2023-12-20T09:46:47;27.13;;;21.03;;
9294;SDS011;4686;44.496;11.324;2023-12-20T09:49:16;25.97;;;20.00;;
9294;SDS011;4686;44.496;11.324;2023-12-20T09:51:45;25.83;;;20.80;;
9294;SDS011;4686;44.496;11.324;2023-12-20T09:54:13;27.20;;;22.20;;
9294;SDS011;4686;44.496;11.324;2023-12-20T09:56:41;30.43;;;21.00;;
9294;SDS011;4686;44.496;11.324;2023-12-20T09:59:08;25.53;;;19.80;;
9294;SDS011;4686;44.496;11.324;2023-12-20T10:01:35;24.30;;;20.50;;
9294;SDS011;4686;44.496;11.324;2023-12-20T10:04:03;23.30;;;19.40;;
9294;SDS011;4686;44.496;11.324;2023-12-20T10:06:34;24.10;;;20.77;;
9294;SDS011;4686;44.496;11.324;2023-12-20T10:09:02;24.27;;;19.83;;
9294;SDS011;4686;44.496;11.324;2023-12-20T10:11:30;25.93;;;20.40;;
9294;SDS011;4686;44.496;11.324;2023-12-20T10:13:58;30.77;;;21.10;;
9294;SDS011;4686;44.496;11.324;2023-12-20T10:16:27;22.37;;;19.77;;
9294;SDS011;4686;44.496;11.324;2023-12-20T10:18:54;25.30;;;19.57;;
9294;SDS011;4686;44.496;11.324;2023-12-20T10:21:21;26.77;;;19.97;;
9294;SDS011;4686;44.496;11.324;2023-12-20T10:23:49;33.83;;;20.60;;
9294;SDS011;4686;44.496;11.324;2023-12-20T10:26:21;23.80;;;19.90;;
9294;SDS011;4686;44.496;11.324;2023-12-20T10:28:51;38.10;;;28.80;;
9294;SDS011;4686;44.496;11.324;2023-12-20T10:31:25;35.50;;;22.27;;
9294;SDS011;4686;44.496;11.324;2023-12-20T10:33:53;26.40;;;20.50;;
9294;SDS011;4686;44.496;11.324;2023-12-20T10:36:20;27.03;;;19.73;;
9294;SDS011;4686;44.496;11.324;2023-12-20T10:38:47;25.30;;;19.50;;
9294;SDS011;4686;44.496;11.324;2023-12-20T10:41:17;23.80;;;19.27;;
9294;SDS011;4686;44.496;11.324;2023-12-20T10:43:48;21.97;;;17.73;;
9294;SDS011;4686;44.496;11.324;2023-12-20T10:46:17;21.10;;;18.40;;
9294;SDS011;4686;44.496;11.324;2023-12-20T10:48:45;24.23;;;17.90;;
9294;SDS011;4686;44.496;11.324;2023-12-20T10:51:17;24.60;;;18.23;;
9294;SDS011;4686;44.496;11.324;2023-12-20T10:53:45;28.43;;;18.43;;
9294;SDS011;4686;44.496;11.324;2023-12-20T10:56:16;21.50;;;18.07;;
9294;SDS011;4686;44.496;11.324;2023-12-20T10:58:43;21.43;;;17.73;;
9294;SDS011;4686;44.496;11.324;2023-12-20T11:01:13;21.97;;;17.00;;
9294;SDS011;4686;44.496;11.324;2023-12-20T11:03:43;29.73;;;17.80;;
9294;SDS011;4686;44.496;11.324;2023-12-20T11:06:10;21.63;;;17.50;;
9294;SDS011;4686;44.496;11.324;2023-12-20T11:08:43;19.80;;;17.27;;
9294;SDS011;4686;44.496;11.324;2023-12-20T11:11:12;25.33;;;17.20;;
9294;SDS011;4686;44.496;11.324;2023-12-20T11:13:43;24.60;;;17.37;;
9294;SDS011;4686;44.496;11.324;2023-12-20T11:16:16;19.50;;;16.97;;
9294;SDS011;4686;44.496;11.324;2023-12-20T11:18:44;22.30;;;17.13;;
9294;SDS011;4686;44.496;11.324;2023-12-20T11:21:11;31.20;;;17.93;;
9294;SDS011;4686;44.496;11.324;2023-12-20T11:23:39;21.57;;;16.33;;
9294;SDS011;4686;44.496;11.324;2023-12-20T11:26:11;22.83;;;17.07;;
9294;SDS011;4686;44.496;11.324;2023-12-20T11:28:44;20.13;;;17.37;;
9294;SDS011;4686;44.496;11.324;2023-12-20T11:31:13;21.67;;;15.70;;
9294;SDS011;4686;44.496;11.324;2023-12-20T11:33:42;20.10;;;16.17;;
9294;SDS011;4686;44.496;11.324;2023-12-20T11:36:13;19.60;;;16.23;;
9294;SDS011;4686;44.496;11.324;2023-12-20T11:38:49;19.03;;;15.80;;
9294;SDS011;4686;44.496;11.324;2023-12-20T11:41:22;18.93;;;15.97;;
9294;SDS011;4686;44.496;11.324;2023-12-20T11:43:51;25.23;;;18.10;;
9294;SDS011;4686;44.496;11.324;2023-12-20T11:46:19;28.90;;;19.17;;
9294;SDS011;4686;44.496;11.324;2023-12-20T11:48:48;25.50;;;20.17;;
9294;SDS011;4686;44.496;11.324;2023-12-20T11:51:16;24.73;;;19.00;;
9294;SDS011;4686;44.496;11.324;2023-12-20T11:53:43;23.17;;;20.13;;
9294;SDS011;4686;44.496;11.324;2023-12-20T11:56:10;25.13;;;19.70;;
9294;SDS011;4686;44.496;11.324;2023-12-20T11:58:38;26.05;;;15.07;;
9294;SDS011;4686;44.496;11.324;2023-12-20T12:01:06;29.77;;;21.90;;
9294;SDS011;4686;44.496;11.324;2023-12-20T12:03:33;27.07;;;21.40;;
9294;SDS011;4686;44.496;11.324;2023-12-20T12:06:02;31.63;;;22.30;;
9294;SDS011;4686;44.496;11.324;2023-12-20T12:08:30;30.73;;;23.47;;
9294;SDS011;4686;44.496;11.324;2023-12-20T12:10:57;37.67;;;23.90;;
9294;SDS011;4686;44.496;11.324;2023-12-20T12:13:26;34.17;;;23.80;;
9294;SDS011;4686;44.496;11.324;2023-12-20T12:15:53;26.77;;;21.20;;
9294;SDS011;4686;44.496;11.324;2023-12-20T12:18:20;30.70;;;25.73;;
9294;SDS011;4686;44.496;11.324;2023-12-20T12:20:47;33.80;;;25.30;;
9294;SDS011;4686;44.496;11.324;2023-12-20T12:23:22;39.00;;;26.93;;
9294;SDS011;4686;44.496;11.324;2023-12-20T12:25:50;46.60;;;27.17;;
9294;SDS011;4686;44.496;11.324;2023-12-20T12:28:17;38.53;;;27.27;;
9294;SDS011;4686;44.496;11.324;2023-12-20T12:30:55;35.87;;;26.93;;
9294;SDS011;4686;44.496;11.324;2023-12-20T12:33:22;37.40;;;26.47;;
9294;SDS011;4686;44.496;11.324;2023-12-20T12:35:52;30.70;;;23.43;;
9294;SDS011;4686;44.496;11.324;2023-12-20T12:38:22;30.80;;;25.17;;
9294;SDS011;4686;44.496;11.324;2023-12-20T12:40:51;31.43;;;25.37;;
9294;SDS011;4686;44.496;11.324;2023-12-20T12:43:18;33.83;;;26.33;;
9294;SDS011;4686;44.496;11.324;2023-12-20T12:45:47;31.90;;;26.97;;
9294;SDS011;4686;44.496;11.324;2023-12-20T12:48:15;33.30;;;25.13;;
9294;SDS011;4686;44.496;11.324;2023-12-20T12:50:42;31.03;;;25.60;;
9294;SDS011;4686;44.496;11.324;2023-12-20T12:53:09;32.40;;;25.37;;
9294;SDS011;4686;44.496;11.324;2023-12-20T12:55:38;33.20;;;27.57;;
9294;SDS011;4686;44.496;11.324;2023-12-20T12:58:05;38.60;;;27.90;;
9294;SDS011;4686;44.496;11.324;2023-12-20T13:00:32;42.80;;;28.00;;
9294;SDS011;4686;44.496;11.324;2023-12-20T13:03:00;35.60;;;26.70;;
9294;SDS011;4686;44.496;11.324;2023-12-20T13:05:27;39.63;;;28.37;;
9294;SDS011;4686;44.496;11.324;2023-12-20T13:07:55;35.07;;;28.53;;
9294;SDS011;4686;44.496;11.324;2023-12-20T13:10:22;40.20;;;28.30;;
9294;SDS011;4686;44.496;11.324;2023-12-20T13:12:50;39.57;;;28.63;;
9294;SDS011;4686;44.496;11.324;2023-12-20T13:15:18;36.30;;;27.10;;
9294;SDS011;4686;44.496;11.324;2023-12-20T13:17:45;39.00;;;29.87;;
9294;SDS011;4686;44.496;11.324;2023-12-20T13:20:13;34.27;;;27.00;;
9294;SDS011;4686;44.496;11.324;2023-12-20T13:22:40;34.37;;;26.83;;
9294;SDS011;4686;44.496;11.324;2023-12-20T13:25:07;39.80;;;26.97;;
9294;SDS011;4686;44.496;11.324;2023-12-20T13:27:35;39.60;;;28.67;;
9294;SDS011;4686;44.496;11.324;2023-12-20T13:30:04;44.00;;;27.00;;
9294;SDS011;4686;44.496;11.324;2023-12-20T13:32:34;37.60;;;28.73;;
9294;SDS011;4686;44.496;11.324;2023-12-20T13:35:01;40.10;;;28.30;;
9294;SDS011;4686;44.496;11.324;2023-12-20T13:37:29;41.73;;;28.93;;
9294;SDS011;4686;44.496;11.324;2023-12-20T13:39:56;37.83;;;28.30;;
9294;SDS011;4686;44.496;11.324;2023-12-20T13:42:23;41.00;;;27.53;;
9294;SDS011;4686;44.496;11.324;2023-12-20T13:44:52;38.27;;;28.03;;
9294;SDS011;4686;44.496;11.324;2023-12-20T13:47:21;38.23;;;27.20;;
9294;SDS011;4686;44.496;11.324;2023-12-20T13:49:48;36.00;;;26.10;;
9294;SDS011;4686;44.496;11.324;2023-12-20T13:52:15;39.27;;;27.10;;
9294;SDS011;4686;44.496;11.324;2023-12-20T13:54:42;40.33;;;27.10;;
9294;SDS011;4686;44.496;11.324;2023-12-20T13:57:10;43.83;;;28.70;;
9294;SDS011;4686;44.496;11.324;2023-12-20T13:59:37;47.43;;;27.27;;
9294;SDS011;4686;44.496;11.324;2023-12-20T14:02:04;42.63;;;29.90;;
9294;SDS011;4686;44.496;11.324;2023-12-20T14:04:33;42.90;;;27.70;;
9294;SDS011;4686;44.496;11.324;2023-12-20T14:07:02;36.53;;;27.97;;
9294;SDS011;4686;44.496;11.324;2023-12-20T14:09:29;34.23;;;26.13;;
9294;SDS011;4686;44.496;11.324;2023-12-20T14:11:56;40.97;;;29.10;;
9294;SDS011;4686;44.496;11.324;2023-12-20T14:14:26;41.87;;;29.10;;
9294;SDS011;4686;44.496;11.324;2023-12-20T14:16:54;42.30;;;26.67;;
9294;SDS011;4686;44.496;11.324;2023-12-20T14:19:22;43.67;;;30.77;;
9294;SDS011;4686;44.496;11.324;2023-12-20T14:21:50;41.53;;;28.07;;
9294;SDS011;4686;44.496;11.324;2023-12-20T14:24:18;42.53;;;30.00;;
9294;SDS011;4686;44.496;11.324;2023-12-20T14:26:50;44.20;;;29.57;;
9294;SDS011;4686;44.496;11.324;2023-12-20T14:29:18;37.97;;;28.87;;
9294;SDS011;4686;44.496;11.324;2023-12-20T14:31:47;37.27;;;30.23;;
9294;SDS011;4686;44.496;11.324;2023-12-20T14:34:15;42.63;;;28.70;;
9294;SDS011;4686;44.496;11.324;2023-12-20T14:36:43;35.73;;;27.77;;
9294;SDS011;4686;44.496;11.324;2023-12-20T14:39:11;40.97;;;28.80;;
9294;SDS011;4686;44.496;11.324;2023-12-20T14:41:40;40.53;;;29.03;;